createdAt,value
2022-08-26T00:00:21.313Z,27.90
2022-08-26T00:03:04.605Z,28.52
2022-08-26T00:05:35.883Z,28.11
2022-08-26T00:08:05.577Z,28.24
2022-08-26T00:10:33.886Z,28.17
2022-08-26T00:13:02.092Z,28.06
2022-08-26T00:15:31.907Z,27.71
2022-08-26T00:18:00.610Z,28.37
2022-08-26T00:20:31.650Z,28.08
2022-08-26T00:23:00.321Z,28.53
2022-08-26T00:25:28.824Z,28.39
2022-08-26T00:27:57.652Z,28.77
2022-08-26T00:30:29.333Z,28.32
2022-08-26T00:33:00.576Z,28.12
2022-08-26T00:35:30.789Z,28.48
2022-08-26T00:38:02.695Z,28.42
2022-08-26T00:40:35.545Z,28.05
2022-08-26T00:43:07.133Z,28.36
2022-08-26T00:45:42.135Z,27.78
2022-08-26T00:48:13.162Z,28.27
2022-08-26T00:50:49.368Z,28.19
2022-08-26T00:53:25.996Z,28.61
2022-08-26T00:56:00.340Z,28.09
2022-08-26T00:58:31.330Z,28.13
2022-08-26T01:00:59.767Z,28.67
2022-08-26T01:03:30.632Z,28.30
2022-08-26T01:06:00.082Z,28.66
2022-08-26T01:08:28.995Z,28.64
2022-08-26T01:10:58.578Z,28.46
2022-08-26T01:13:28.816Z,28.60
2022-08-26T01:15:59.070Z,28.55
2022-08-26T01:18:29.638Z,27.23
2022-08-26T01:21:03.432Z,28.21
2022-08-26T01:23:35.628Z,28.51
2022-08-26T01:26:06.838Z,28.57
2022-08-26T01:28:36.314Z,28.93
2022-08-26T01:31:06.844Z,29.24
2022-08-26T01:33:42.051Z,28.78
2022-08-26T01:36:12.392Z,29.18
2022-08-26T01:38:42.556Z,29.53
2022-08-26T01:41:16.118Z,29.99
2022-08-26T01:43:49.635Z,29.92
2022-08-26T01:46:18.669Z,30.23
2022-08-26T01:48:49.464Z,30.24
2022-08-26T01:51:23.825Z,30.72
2022-08-26T01:53:53.444Z,30.64
2022-08-26T01:56:22.943Z,30.55
2022-08-26T01:58:54.013Z,30.65
2022-08-26T02:01:22.909Z,31.11
2022-08-26T02:04:00.704Z,30.32
2022-08-26T02:06:28.945Z,30.72
2022-08-26T02:09:02.653Z,30.21
2022-08-26T02:11:30.818Z,31.02
2022-08-26T02:14:02.949Z,30.67
2022-08-26T02:16:35.837Z,30.18
2022-08-26T02:19:06.043Z,30.56
2022-08-26T02:21:36.565Z,30.73
2022-08-26T02:24:14.545Z,29.88
2022-08-26T02:26:43.663Z,30.58
2022-08-26T02:29:17.751Z,29.88
2022-08-26T02:31:46.129Z,29.97
2022-08-26T02:34:16.651Z,29.88
2022-08-26T02:36:44.676Z,29.98
2022-08-26T02:39:19.548Z,29.64
2022-08-26T02:41:50.926Z,30.02
2022-08-26T02:44:19.398Z,30.07
2022-08-26T02:46:47.631Z,29.82
2022-08-26T02:49:16.992Z,29.77
2022-08-26T02:51:45.917Z,29.68
2022-08-26T02:54:15.703Z,29.23
2022-08-26T02:56:44.461Z,29.83
2022-08-26T02:59:13.633Z,29.74
2022-08-26T03:01:42.667Z,29.89
2022-08-26T03:04:12.931Z,29.72
2022-08-26T03:06:42.333Z,28.74
2022-08-26T03:09:14.028Z,30.01
2022-08-26T03:11:48.582Z,30.18
2022-08-26T03:14:17.408Z,30.10
2022-08-26T03:16:48.530Z,30.12
2022-08-26T03:19:17.614Z,30.12
2022-08-26T03:21:47.501Z,30.27
2022-08-26T03:24:17.708Z,30.21
2022-08-26T03:26:52.088Z,30.60
2022-08-26T03:29:40.376Z,30.10
2022-08-26T03:32:09.039Z,30.66
2022-08-26T03:34:37.311Z,30.57
2022-08-26T03:37:07.132Z,30.22
2022-08-26T03:39:37.030Z,30.11
2022-08-26T03:42:06.850Z,29.79
2022-08-26T03:44:37.403Z,29.55
2022-08-26T03:47:10.589Z,29.62
2022-08-26T03:49:38.975Z,29.38
2022-08-26T03:52:07.443Z,29.46
2022-08-26T03:54:36.135Z,29.25
2022-08-26T03:57:04.353Z,29.32
2022-08-26T03:59:33.826Z,29.14
2022-08-26T04:02:03.717Z,28.59
2022-08-26T04:04:39.951Z,28.82
2022-08-26T04:07:08.725Z,28.75
2022-08-26T04:09:37.058Z,28.90
2022-08-26T04:12:06.536Z,28.60
2022-08-26T04:14:37.748Z,28.48
2022-08-26T04:17:08.534Z,28.27
2022-08-26T04:19:36.838Z,28.63
2022-08-26T04:22:04.879Z,28.17
2022-08-26T04:24:33.176Z,27.99
2022-08-26T04:27:03.485Z,27.69
2022-08-26T04:29:31.767Z,27.20
2022-08-26T04:32:01.301Z,27.39
2022-08-26T04:34:33.092Z,26.48
2022-08-26T04:37:01.987Z,26.78
2022-08-26T04:39:30.783Z,26.43
2022-08-26T04:42:00.130Z,26.23
2022-08-26T04:44:31.134Z,25.81
2022-08-26T04:46:59.706Z,25.77
2022-08-26T04:49:27.943Z,24.99
2022-08-26T04:52:05.756Z,24.61
2022-08-26T04:54:34.004Z,24.80
2022-08-26T04:57:02.619Z,24.51
2022-08-26T04:59:31.122Z,24.11
2022-08-26T05:01:59.747Z,24.02
2022-08-26T05:04:28.217Z,24.03
2022-08-26T05:07:02.577Z,23.31
2022-08-26T05:09:32.649Z,23.00
2022-08-26T05:12:01.068Z,22.60
2022-08-26T05:14:29.283Z,22.38
2022-08-26T05:16:57.497Z,22.45
2022-08-26T05:19:27.969Z,21.91
2022-08-26T05:21:56.226Z,21.61
2022-08-26T05:24:24.622Z,20.72
2022-08-26T05:26:54.482Z,20.70
2022-08-26T05:29:25.130Z,20.83
2022-08-26T05:31:54.080Z,20.57
2022-08-26T05:34:25.763Z,19.71
2022-08-26T05:36:58.463Z,19.20
2022-08-26T05:39:26.588Z,19.07
2022-08-26T05:41:56.117Z,18.50
2022-08-26T05:44:24.657Z,18.15
2022-08-26T05:46:53.050Z,18.54
2022-08-26T05:49:22.535Z,18.34
2022-08-26T05:51:54.961Z,18.41
2022-08-26T05:54:23.029Z,17.40
2022-08-26T05:56:51.990Z,17.07
2022-08-26T05:59:24.323Z,16.40
2022-08-26T06:01:53.406Z,16.27
2022-08-26T06:04:23.154Z,15.62
2022-08-26T06:06:54.966Z,15.30
2022-08-26T06:09:23.459Z,14.49
2022-08-26T06:11:52.246Z,13.89
2022-08-26T06:14:23.264Z,13.13
2022-08-26T06:16:51.673Z,12.83
2022-08-26T06:19:21.689Z,13.13
2022-08-26T06:21:54.859Z,13.27
2022-08-26T06:24:41.232Z,13.41
2022-08-26T06:27:13.761Z,13.07
2022-08-26T06:29:43.683Z,12.85
2022-08-26T06:32:11.824Z,12.91
2022-08-26T06:34:40.046Z,13.45
2022-08-26T06:37:09.046Z,13.26
2022-08-26T06:39:41.171Z,13.26
2022-08-26T06:42:10.922Z,13.25
2022-08-26T06:44:41.113Z,12.95
2022-08-26T06:47:10.792Z,12.51
2022-08-26T06:49:39.837Z,12.25
2022-08-26T06:52:08.013Z,11.60
2022-08-26T06:54:37.158Z,11.51
2022-08-26T06:57:07.504Z,11.40
2022-08-26T06:59:35.597Z,11.00
2022-08-26T07:02:04.094Z,11.80
2022-08-26T07:04:35.891Z,11.54
2022-08-26T07:07:04.079Z,11.72
2022-08-26T07:09:33.277Z,11.61
2022-08-26T07:12:02.554Z,11.04
2022-08-26T07:14:31.819Z,10.01
2022-08-26T07:17:01.540Z,10.49
2022-08-26T07:19:31.616Z,10.85
2022-08-26T07:22:04.226Z,10.59
2022-08-26T07:24:33.553Z,11.12
2022-08-26T07:27:05.590Z,10.74
2022-08-26T07:29:34.664Z,10.76
2022-08-26T07:32:03.966Z,10.22
2022-08-26T07:34:33.450Z,9.78
2022-08-26T07:37:03.663Z,9.74
2022-08-26T07:39:32.861Z,9.98
2022-08-26T07:42:01.669Z,9.82
2022-08-26T07:44:36.361Z,9.07
2022-08-26T07:47:24.556Z,8.43
2022-08-26T07:49:53.016Z,8.02
2022-08-26T07:52:26.633Z,7.59
2022-08-26T07:54:56.318Z,8.09
2022-08-26T07:57:24.806Z,7.87
2022-08-26T07:59:54.021Z,8.01
2022-08-26T08:02:24.668Z,7.82
2022-08-26T08:04:53.412Z,7.69
2022-08-26T08:07:38.550Z,6.75
2022-08-26T08:10:13.709Z,6.17
2022-08-26T08:12:42.526Z,5.41
2022-08-26T08:15:13.823Z,6.06
2022-08-26T08:17:43.489Z,5.87
2022-08-26T08:20:12.476Z,5.45
2022-08-26T08:22:42.547Z,4.95
2022-08-26T08:25:12.451Z,5.37
2022-08-26T08:27:42.222Z,4.65
2022-08-26T08:30:13.795Z,3.86
2022-08-26T08:32:43.695Z,3.70
2022-08-26T08:35:13.479Z,4.08
2022-08-26T08:37:43.772Z,4.78
2022-08-26T08:40:12.322Z,3.92
2022-08-26T08:42:46.902Z,3.61
2022-08-26T08:45:19.213Z,4.37
2022-08-26T08:47:50.496Z,5.05
2022-08-26T08:50:23.431Z,5.16
2022-08-26T08:53:00.464Z,5.89
2022-08-26T08:55:37.762Z,5.53
2022-08-26T08:58:09.243Z,5.29
2022-08-26T09:00:45.007Z,5.34
2022-08-26T09:03:24.656Z,4.98
2022-08-26T09:05:53.726Z,5.83
2022-08-26T09:08:29.747Z,5.51
2022-08-26T09:11:00.511Z,5.56
2022-08-26T09:13:29.297Z,5.71
2022-08-26T09:16:08.382Z,5.69
2022-08-26T09:18:49.537Z,4.78
2022-08-26T09:21:20.750Z,5.12
2022-08-26T09:23:54.133Z,4.26
2022-08-26T09:26:29.080Z,3.87
2022-08-26T09:29:00.156Z,3.26
2022-08-26T09:31:30.783Z,2.84
2022-08-26T09:34:17.897Z,2.63
2022-08-26T09:36:49.702Z,2.63
2022-08-26T09:39:31.932Z,2.82
2022-08-26T09:42:22.452Z,2.80
2022-08-26T09:44:56.593Z,2.61
2022-08-26T09:47:30.286Z,2.59
2022-08-26T09:50:04.835Z,2.68
2022-08-26T09:52:38.485Z,3.07
2022-08-26T09:55:14.805Z,2.81
2022-08-26T09:57:49.671Z,2.12
2022-08-26T10:00:42.026Z,2.54
2022-08-26T10:03:12.485Z,2.81
2022-08-26T10:05:48.606Z,1.87
2022-08-26T10:08:25.676Z,1.60
2022-08-26T10:10:57.665Z,1.47
2022-08-26T10:13:32.967Z,2.14
2022-08-26T10:16:10.634Z,2.25
2022-08-26T10:18:42.217Z,1.50
2022-08-26T10:21:13.110Z,1.38
2022-08-26T10:23:43.439Z,2.00
2022-08-26T10:26:17.944Z,2.51
2022-08-26T10:28:50.650Z,2.37
2022-08-26T10:31:27.848Z,1.08
2022-08-26T10:33:59.997Z,1.30
2022-08-26T10:37:14.525Z,1.93
2022-08-26T10:39:43.208Z,2.21
2022-08-26T10:42:18.726Z,1.70
2022-08-26T10:44:47.292Z,2.03
2022-08-26T10:47:19.639Z,2.13
2022-08-26T10:49:48.826Z,3.30
2022-08-26T10:52:23.486Z,2.78
2022-08-26T10:55:03.161Z,3.26
2022-08-26T10:57:41.425Z,3.05
2022-08-26T11:00:27.698Z,2.88
2022-08-26T11:03:00.603Z,2.83
2022-08-26T11:05:29.382Z,3.48
2022-08-26T11:08:29.551Z,3.00
2022-08-26T11:10:59.938Z,3.24
2022-08-26T11:14:06.109Z,3.51
2022-08-26T11:16:42.886Z,3.48
2022-08-26T11:19:14.080Z,4.05
2022-08-26T11:22:06.232Z,4.61
2022-08-26T11:25:01.644Z,5.41
2022-08-26T11:28:04.111Z,4.77
2022-08-26T11:30:47.696Z,4.71
2022-08-26T11:33:58.194Z,4.96
2022-08-26T11:37:04.138Z,5.13
2022-08-26T11:39:36.733Z,5.55
2022-08-26T11:42:20.102Z,6.42
2022-08-26T11:44:49.853Z,7.65
2022-08-26T11:47:28.709Z,8.18
2022-08-26T11:50:15.810Z,8.76
2022-08-26T11:52:52.883Z,8.78
2022-08-26T11:55:23.255Z,9.73
2022-08-26T11:57:53.970Z,9.22
2022-08-26T12:00:25.114Z,9.55
2022-08-26T12:02:55.739Z,9.91
2022-08-26T12:05:30.828Z,10.08
2022-08-26T12:08:04.268Z,10.42
2022-08-26T12:10:35.644Z,10.23
2022-08-26T12:13:05.472Z,10.38
2022-08-26T12:15:35.796Z,10.64
2022-08-26T12:18:28.899Z,10.80
2022-08-26T12:21:00.873Z,10.17
2022-08-26T12:23:41.912Z,9.94
2022-08-26T12:26:15.543Z,9.77
2022-08-26T12:28:45.675Z,10.33
2022-08-26T12:31:22.653Z,10.04
2022-08-26T12:33:53.236Z,9.97
2022-08-26T12:36:25.566Z,9.85
2022-08-26T12:38:58.004Z,10.22
2022-08-26T12:41:39.898Z,10.13
2022-08-26T12:44:08.413Z,10.26
2022-08-26T12:46:36.493Z,10.22
2022-08-26T12:49:06.172Z,10.31
2022-08-26T12:51:42.046Z,10.54
2022-08-26T12:54:16.059Z,10.05
2022-08-26T12:56:44.567Z,9.88
2022-08-26T12:59:23.419Z,9.51
2022-08-26T13:01:52.692Z,10.29
2022-08-26T13:04:37.583Z,9.59
2022-08-26T13:07:23.229Z,10.24
2022-08-26T13:09:53.253Z,10.43
2022-08-26T13:12:27.371Z,10.07
2022-08-26T13:14:56.190Z,10.58
2022-08-26T13:17:24.545Z,11.12
2022-08-26T13:19:54.411Z,10.46
2022-08-26T13:22:25.090Z,10.62
2022-08-26T13:24:55.549Z,10.26
2022-08-26T13:27:26.411Z,11.02
2022-08-26T13:29:55.721Z,11.50
2022-08-26T13:32:27.515Z,11.49
2022-08-26T13:34:58.879Z,11.40
2022-08-26T13:37:34.397Z,12.16
2022-08-26T13:40:04.984Z,11.77
2022-08-26T13:42:33.181Z,11.31
2022-08-26T13:45:03.033Z,11.16
2022-08-26T13:47:31.619Z,11.66
2022-08-26T13:50:01.118Z,11.46
2022-08-26T13:52:30.661Z,11.78
2022-08-26T13:55:00.459Z,12.16
2022-08-26T13:57:30.398Z,12.40
2022-08-26T14:00:00.150Z,12.91
2022-08-26T14:02:29.222Z,12.84
2022-08-26T14:04:57.404Z,12.30
2022-08-26T14:07:26.943Z,12.45
2022-08-26T14:09:55.325Z,12.50
2022-08-26T14:12:23.653Z,12.09
2022-08-26T14:14:52.136Z,12.23
2022-08-26T14:17:22.202Z,12.35
2022-08-26T14:19:51.421Z,12.01
2022-08-26T14:22:22.420Z,12.42
2022-08-26T14:24:52.158Z,12.92
2022-08-26T14:27:20.367Z,12.33
2022-08-26T14:29:48.555Z,12.21
2022-08-26T14:32:23.226Z,12.18
2022-08-26T14:34:52.115Z,12.21
2022-08-26T14:37:20.839Z,12.34
2022-08-26T14:39:49.191Z,12.66
2022-08-26T14:42:22.532Z,11.98
2022-08-26T14:44:54.505Z,12.24
2022-08-26T14:47:22.607Z,12.38
2022-08-26T14:49:50.744Z,12.04
2022-08-26T14:52:19.412Z,12.36
2022-08-26T14:54:46.572Z,12.59
2022-08-26T14:57:15.134Z,11.84
2022-08-26T14:59:49.665Z,11.46
2022-08-26T15:02:32.594Z,11.75
2022-08-26T15:05:02.555Z,11.83
2022-08-26T15:07:30.952Z,12.10
2022-08-26T15:09:59.179Z,11.75
2022-08-26T15:12:28.166Z,11.87
2022-08-26T15:14:57.684Z,11.26
2022-08-26T15:17:26.309Z,11.61
2022-08-26T15:19:54.626Z,11.78
2022-08-26T15:22:22.860Z,11.82
2022-08-26T15:24:51.831Z,12.06
2022-08-26T15:27:22.183Z,12.26
2022-08-26T15:29:50.279Z,11.60
2022-08-26T15:32:19.898Z,11.85
2022-08-26T15:34:49.994Z,11.74
2022-08-26T15:37:18.349Z,11.68
2022-08-26T15:39:46.626Z,11.57
2022-08-26T15:42:15.118Z,11.32
2022-08-26T15:44:44.805Z,11.44
2022-08-26T15:47:13.805Z,11.72
2022-08-26T15:49:43.716Z,11.97
2022-08-26T15:52:11.896Z,12.06
2022-08-26T15:54:41.003Z,11.75
2022-08-26T15:57:11.463Z,11.91
2022-08-26T15:59:40.780Z,11.81
2022-08-26T16:02:09.227Z,12.19
2022-08-26T16:04:37.618Z,12.18
2022-08-26T16:07:07.176Z,11.96
2022-08-26T16:09:35.262Z,12.27
2022-08-26T16:12:04.059Z,11.76
2022-08-26T16:14:32.341Z,11.84
2022-08-26T16:17:00.522Z,11.82
2022-08-26T16:19:28.866Z,11.62
2022-08-26T16:21:57.158Z,11.93
2022-08-26T16:24:30.384Z,11.69
2022-08-26T16:26:59.145Z,11.74
2022-08-26T16:29:27.626Z,11.62
2022-08-26T16:31:55.873Z,11.91
2022-08-26T16:34:24.334Z,11.67
2022-08-26T16:36:52.546Z,11.86
2022-08-26T16:39:20.750Z,11.74
2022-08-26T16:41:50.505Z,12.11
2022-08-26T16:44:19.235Z,12.07
2022-08-26T16:46:47.368Z,12.61
2022-08-26T16:49:16.166Z,12.37
2022-08-26T16:51:44.489Z,12.41
2022-08-26T16:54:12.815Z,12.18
2022-08-26T16:56:41.487Z,12.27
2022-08-26T16:59:12.254Z,12.49
2022-08-26T17:01:40.514Z,12.96
2022-08-26T17:04:09.181Z,12.87
2022-08-26T17:06:38.303Z,13.13
2022-08-26T17:09:06.936Z,13.39
2022-08-26T17:11:35.466Z,13.19
2022-08-26T17:14:03.624Z,13.21
2022-08-26T17:16:33.555Z,13.19
2022-08-26T17:19:02.622Z,13.77
2022-08-26T17:21:30.918Z,13.69
2022-08-26T17:23:59.428Z,14.09
2022-08-26T17:26:27.866Z,13.96
2022-08-26T17:28:56.148Z,13.86
2022-08-26T17:31:24.831Z,14.16
2022-08-26T17:33:55.632Z,13.80
2022-08-26T17:36:28.056Z,13.78
2022-08-26T17:38:57.988Z,14.39
2022-08-26T17:41:26.259Z,14.64
2022-08-26T17:43:54.671Z,14.86
2022-08-26T17:46:23.364Z,14.46
2022-08-26T17:48:51.523Z,15.03
2022-08-26T17:51:21.078Z,15.28
2022-08-26T17:53:49.800Z,15.51
2022-08-26T17:56:23.970Z,15.35
2022-08-26T17:58:52.710Z,16.05
2022-08-26T18:01:21.318Z,16.12
2022-08-26T18:03:50.035Z,16.51
2022-08-26T18:06:18.393Z,16.46
2022-08-26T18:08:48.337Z,15.98
2022-08-26T18:11:18.293Z,16.52
2022-08-26T18:13:47.763Z,16.68
2022-08-26T18:16:17.865Z,16.64
2022-08-26T18:18:46.588Z,16.77
2022-08-26T18:21:17.117Z,16.88
2022-08-26T18:23:47.875Z,16.93
2022-08-26T18:26:20.685Z,16.92
2022-08-26T18:28:48.732Z,17.33
2022-08-26T18:31:16.942Z,17.28
2022-08-26T18:33:45.745Z,17.40
2022-08-26T18:36:19.624Z,16.73
2022-08-26T18:38:50.750Z,17.23
2022-08-26T18:41:20.779Z,17.08
2022-08-26T18:43:50.616Z,17.51
2022-08-26T18:46:22.086Z,17.25
2022-08-26T18:48:50.967Z,17.51
2022-08-26T18:51:20.994Z,17.39
2022-08-26T18:53:51.114Z,17.25
2022-08-26T18:56:19.906Z,17.81
2022-08-26T18:58:48.196Z,17.78
2022-08-26T19:01:17.328Z,17.83
2022-08-26T19:03:46.724Z,17.82
2022-08-26T19:06:16.491Z,17.54
2022-08-26T19:08:44.955Z,17.55
2022-08-26T19:11:14.922Z,17.89
2022-08-26T19:13:43.691Z,18.04
2022-08-26T19:16:16.660Z,17.46
2022-08-26T19:18:45.310Z,18.00
2022-08-26T19:21:13.973Z,18.14
2022-08-26T19:23:42.260Z,18.18
2022-08-26T19:26:11.343Z,18.23
2022-08-26T19:28:41.341Z,18.31
2022-08-26T19:31:10.989Z,18.42
2022-08-26T19:33:39.629Z,18.30
2022-08-26T19:36:12.648Z,18.20
2022-08-26T19:38:43.023Z,18.05
2022-08-26T19:41:13.213Z,18.21
2022-08-26T19:43:43.107Z,18.47
2022-08-26T19:46:17.461Z,18.32
2022-08-26T19:48:45.803Z,17.95
2022-08-26T19:51:15.787Z,18.51
2022-08-26T19:53:44.751Z,18.41
2022-08-26T19:56:13.484Z,18.24
2022-08-26T19:58:43.530Z,18.22
2022-08-26T20:01:12.533Z,18.17
2022-08-26T20:03:41.432Z,18.40
2022-08-26T20:06:11.041Z,18.03
2022-08-26T20:08:40.355Z,18.28
2022-08-26T20:11:12.006Z,18.21
2022-08-26T20:13:41.034Z,19.14
2022-08-26T20:16:12.247Z,18.41
2022-08-26T20:18:58.889Z,19.03
2022-08-26T20:21:27.498Z,18.97
2022-08-26T20:23:58.425Z,18.71
2022-08-26T20:26:28.030Z,18.94
2022-08-26T20:28:56.619Z,19.17
2022-08-26T20:31:26.616Z,19.10
2022-08-26T20:33:55.776Z,19.54
2022-08-26T20:36:26.931Z,19.31
2022-08-26T20:38:55.557Z,19.49
2022-08-26T20:41:25.490Z,19.60
2022-08-26T20:43:53.946Z,19.58
2022-08-26T20:46:24.852Z,19.42
2022-08-26T20:48:55.610Z,18.90
2022-08-26T20:51:28.974Z,19.35
2022-08-26T20:53:57.396Z,19.17
2022-08-26T20:56:25.678Z,19.42
2022-08-26T20:58:55.860Z,19.41
2022-08-26T21:01:26.516Z,19.58
2022-08-26T21:03:57.382Z,19.39
2022-08-26T21:06:25.846Z,19.67
2022-08-26T21:08:54.926Z,19.73
2022-08-26T21:11:23.282Z,19.88
2022-08-26T21:14:15.998Z,20.30
2022-08-26T21:16:41.262Z,20.46
2022-08-26T21:19:12.970Z,20.12
2022-08-26T21:21:42.001Z,20.07
2022-08-26T21:24:10.776Z,20.08
2022-08-26T21:26:39.066Z,20.18
2022-08-26T21:29:09.925Z,20.01
2022-08-26T21:31:43.523Z,20.02
2022-08-26T21:34:17.556Z,19.99
2022-08-26T21:36:46.255Z,20.25
2022-08-26T21:39:15.009Z,20.33
2022-08-26T21:41:44.409Z,20.07
2022-08-26T21:44:13.696Z,20.30
2022-08-26T21:46:41.987Z,20.52
2022-08-26T21:49:13.208Z,20.19
2022-08-26T21:51:44.280Z,20.51
2022-08-26T21:54:12.891Z,19.73
2022-08-26T21:56:44.366Z,20.80
2022-08-26T21:59:13.046Z,20.89
2022-08-26T22:01:41.687Z,20.85
2022-08-26T22:04:10.746Z,20.87
2022-08-26T22:06:43.572Z,20.37
2022-08-26T22:09:12.806Z,20.63
2022-08-26T22:11:41.127Z,20.57
2022-08-26T22:14:09.698Z,20.54
2022-08-26T22:16:38.462Z,20.89
2022-08-26T22:19:06.775Z,21.92
2022-08-26T22:21:35.846Z,22.11
2022-08-26T22:24:08.644Z,22.38
2022-08-26T22:26:36.872Z,22.78
2022-08-26T22:29:06.457Z,22.98
2022-08-26T22:31:37.978Z,23.34
2022-08-26T22:34:08.732Z,23.26
2022-08-26T22:36:43.191Z,23.69
2022-08-26T22:39:14.643Z,23.82
2022-08-26T22:41:43.379Z,23.69
2022-08-26T22:44:12.117Z,23.02
2022-08-26T22:46:41.484Z,23.26
2022-08-26T22:49:10.189Z,23.62
2022-08-26T22:51:38.582Z,23.59
2022-08-26T22:54:07.785Z,23.20
2022-08-26T22:56:38.050Z,23.20
2022-08-26T22:59:06.877Z,23.10
2022-08-26T23:01:37.387Z,22.92
2022-08-26T23:04:07.433Z,22.31
2022-08-26T23:06:36.964Z,22.14
2022-08-26T23:09:06.199Z,22.16
2022-08-26T23:11:34.439Z,22.20
2022-08-26T23:14:05.089Z,22.30
2022-08-26T23:16:40.928Z,21.79
2022-08-26T23:19:09.464Z,22.23
2022-08-26T23:21:37.959Z,22.04
2022-08-26T23:24:06.835Z,22.03
2022-08-26T23:26:35.242Z,22.44
2022-08-26T23:29:06.424Z,22.16
2022-08-26T23:31:34.856Z,22.28
2022-08-26T23:34:20.500Z,22.52
2022-08-26T23:36:48.998Z,22.39
2022-08-26T23:39:17.333Z,22.76
2022-08-26T23:41:45.857Z,22.71
2022-08-26T23:44:15.628Z,22.23
2022-08-26T23:46:44.382Z,22.86
2022-08-26T23:49:12.535Z,23.08
2022-08-26T23:51:58.651Z,23.27
2022-08-26T23:54:26.807Z,23.08
2022-08-26T23:56:55.246Z,23.27
2022-08-26T23:59:24.846Z,22.79
